createdAt,value
2022-09-03T00:02:52.877Z,95635.50
2022-09-03T00:07:55.184Z,95634.75
2022-09-03T00:13:01.674Z,95615.50
2022-09-03T00:18:16.247Z,95604.78
2022-09-03T00:23:24.992Z,95585.25
2022-09-03T00:28:35.846Z,95571.31
2022-09-03T00:33:40.505Z,95552.34
2022-09-03T00:38:42.784Z,95532.88
2022-09-03T00:43:53.892Z,95519.84
2022-09-03T00:49:13.352Z,95517.84
2022-09-03T00:54:21.706Z,95522.88
2022-09-03T00:59:48.664Z,95515.44
2022-09-03T01:05:25.564Z,95529.88
2022-09-03T01:10:58.786Z,95542.88
2022-09-03T01:16:18.687Z,95540.97
2022-09-03T01:21:49.245Z,95532.06
2022-09-03T01:27:13.354Z,95530.50
2022-09-03T01:32:27.306Z,95522.78
2022-09-03T01:38:17.725Z,95541.00
2022-09-03T01:43:53.285Z,95535.88
2022-09-03T01:49:23.567Z,95531.97
2022-09-03T01:54:51.445Z,95543.31
2022-09-03T02:00:24.773Z,95559.41
2022-09-03T02:05:28.445Z,95564.81
2022-09-03T02:10:42.844Z,95571.28
2022-09-03T02:15:47.359Z,95578.34
2022-09-03T02:20:53.634Z,95586.47
2022-09-03T02:26:01.526Z,95606.28
2022-09-03T02:31:05.589Z,95617.91
2022-09-03T02:36:18.185Z,95612.88
2022-09-03T02:41:39.316Z,95601.88
2022-09-03T02:46:49.017Z,95610.19
2022-09-03T02:51:51.744Z,95614.34
2022-09-03T02:57:16.686Z,95617.00
2022-09-03T03:02:25.967Z,95611.91
2022-09-03T03:07:32.439Z,95615.41
2022-09-03T03:12:34.905Z,95617.56
2022-09-03T03:17:38.744Z,95629.28
2022-09-03T03:22:41.125Z,95636.16
2022-09-03T03:27:43.824Z,95630.13
2022-09-03T03:32:46.783Z,95624.25
2022-09-03T03:37:49.540Z,95629.19
2022-09-03T03:42:51.923Z,95637.47
2022-09-03T03:47:58.108Z,95641.97
2022-09-03T03:53:01.821Z,95645.53
2022-09-03T03:58:04.324Z,95640.31
2022-09-03T04:03:07.844Z,95640.03
2022-09-03T04:08:10.377Z,95629.88
2022-09-03T04:13:12.716Z,95621.38
2022-09-03T04:18:15.017Z,95609.00
2022-09-03T04:23:18.159Z,95601.13
2022-09-03T04:28:20.425Z,95609.94
2022-09-03T04:33:26.144Z,95609.34
2022-09-03T04:38:49.053Z,95608.94
2022-09-03T04:44:09.511Z,95623.09
2022-09-03T04:49:11.677Z,95631.28
2022-09-03T04:54:14.224Z,95608.00
2022-09-03T04:59:16.511Z,95597.16
2022-09-03T05:04:38.039Z,95590.16
2022-09-03T05:09:40.567Z,95568.22
2022-09-03T05:14:43.054Z,95593.00
2022-09-03T05:19:45.341Z,95575.66
2022-09-03T05:24:48.522Z,95541.34
2022-09-03T05:29:51.023Z,95522.31
2022-09-03T05:34:54.186Z,95548.34
2022-09-03T05:39:56.714Z,95573.44
2022-09-03T05:44:59.285Z,95567.28
2022-09-03T05:50:01.751Z,95563.56
2022-09-03T05:55:06.147Z,95566.34
2022-09-03T06:00:09.574Z,95557.22
2022-09-03T06:05:32.004Z,95545.84
2022-09-03T06:10:40.887Z,95541.94
2022-09-03T06:15:43.816Z,95535.72
2022-09-03T06:20:54.803Z,95530.91
2022-09-03T06:26:05.074Z,95534.75
2022-09-03T06:31:10.641Z,95527.09
2022-09-03T06:36:17.042Z,95522.13
2022-09-03T06:41:21.553Z,95537.88
2022-09-03T06:46:24.714Z,95531.66
2022-09-03T06:51:29.081Z,95524.09
2022-09-03T06:56:34.964Z,95514.41
2022-09-03T07:01:44.136Z,95527.88
2022-09-03T07:06:48.602Z,95513.19
2022-09-03T07:11:51.002Z,95524.72
2022-09-03T07:16:53.622Z,95520.22
2022-09-03T07:21:56.254Z,95520.34
2022-09-03T07:27:00.895Z,95518.03
2022-09-03T07:32:03.965Z,95515.31
2022-09-03T07:37:10.335Z,95518.75
2022-09-03T07:42:13.216Z,95509.91
2022-09-03T07:47:16.515Z,95506.47
2022-09-03T07:52:31.136Z,95522.50
2022-09-03T07:57:58.835Z,95531.34
2022-09-03T08:03:02.555Z,95536.72
2022-09-03T08:08:06.735Z,95547.84
2022-09-03T08:13:09.375Z,95551.13
2022-09-03T08:18:12.695Z,95543.75
2022-09-03T08:23:15.694Z,95555.44
2022-09-03T08:28:19.535Z,95597.41
2022-09-03T08:33:23.465Z,95611.13
2022-09-03T08:38:33.158Z,95622.38
2022-09-03T08:44:03.120Z,95614.72
2022-09-03T08:49:52.067Z,95664.50
2022-09-03T08:55:36.497Z,95683.53
2022-09-03T09:00:57.938Z,95696.94
2022-09-03T09:06:44.617Z,95717.97
2022-09-03T09:17:45.855Z,95727.56
2022-09-03T09:23:13.274Z,95739.38
2022-09-03T09:28:30.956Z,95752.31
2022-09-03T09:33:35.571Z,95735.72
2022-09-03T09:38:40.244Z,95733.69
2022-09-03T09:43:43.936Z,95759.31
2022-09-03T09:49:25.299Z,95765.97
2022-09-03T09:54:27.676Z,95727.50
2022-09-03T10:00:00.183Z,95708.56
2022-09-03T10:05:32.695Z,95714.38
2022-09-03T10:10:42.896Z,95726.06
2022-09-03T10:16:11.998Z,95723.81
2022-09-03T10:21:44.054Z,95731.25
2022-09-03T10:26:46.179Z,95736.38
2022-09-03T10:32:02.934Z,95762.19
2022-09-03T10:37:18.576Z,95781.72
2022-09-03T10:42:42.057Z,95766.34
2022-09-03T10:48:05.958Z,95747.69
2022-09-03T10:53:32.134Z,95679.88
2022-09-03T10:58:46.455Z,95733.91
2022-09-03T11:04:13.049Z,95740.72
2022-09-03T11:09:20.094Z,95721.16
2022-09-03T11:14:44.934Z,95707.84
2022-09-03T11:19:58.476Z,95700.38
2022-09-03T11:25:03.395Z,95703.34
2022-09-03T11:30:13.507Z,95694.56
2022-09-03T11:35:29.215Z,95694.47
2022-09-03T11:41:14.041Z,95688.94
2022-09-03T11:46:34.855Z,95696.03
2022-09-03T11:52:01.794Z,95709.13
2022-09-03T11:57:28.477Z,95706.03
2022-09-03T12:02:35.164Z,95698.75
2022-09-03T12:08:16.006Z,95704.88
2022-09-03T12:13:59.215Z,95699.78
2022-09-03T12:19:12.717Z,95695.88
2022-09-03T12:24:15.693Z,95687.41
2022-09-03T12:29:36.416Z,95679.63
2022-09-03T12:34:38.655Z,95685.63
2022-09-03T12:40:08.393Z,95679.09
2022-09-03T12:45:12.239Z,95684.34
2022-09-03T12:50:20.977Z,95666.47
2022-09-03T12:55:35.317Z,95668.50
2022-09-03T13:00:43.254Z,95664.19
2022-09-03T13:05:55.178Z,95647.97
2022-09-03T13:11:01.855Z,95642.31
2022-09-03T13:16:37.578Z,95634.50
2022-09-03T13:21:48.956Z,95641.50
2022-09-03T13:27:07.856Z,95638.28
2022-09-03T13:32:31.569Z,95630.06
2022-09-03T13:37:55.054Z,95620.31
2022-09-03T13:43:12.122Z,95620.25
2022-09-03T13:48:29.307Z,95612.66
2022-09-03T13:53:49.843Z,95615.81
2022-09-03T13:59:32.342Z,95609.09
2022-09-03T14:04:58.743Z,95609.47
2022-09-03T14:10:50.202Z,95599.13
2022-09-03T14:16:37.646Z,95602.22
2022-09-03T14:21:54.446Z,95600.84
2022-09-03T14:27:24.599Z,95591.75
2022-09-03T14:33:17.212Z,95604.34
2022-09-03T14:38:45.154Z,95617.03
2022-09-03T14:43:59.376Z,95609.75
2022-09-03T14:49:13.715Z,95614.09
2022-09-03T14:54:41.857Z,95609.34
2022-09-03T14:59:55.176Z,95609.69
2022-09-03T15:05:54.356Z,95604.13
2022-09-03T15:11:02.255Z,95593.94
2022-09-03T15:16:51.138Z,95590.03
2022-09-03T15:22:26.016Z,95586.56
2022-09-03T15:27:37.159Z,95585.41
2022-09-03T15:33:00.861Z,95594.88
2022-09-03T15:38:13.481Z,95591.31
2022-09-03T15:43:36.316Z,95588.47
2022-09-03T15:54:34.017Z,95590.72
2022-09-03T16:00:02.848Z,95587.19
2022-09-03T16:05:14.117Z,95594.13
2022-09-03T16:10:59.260Z,95601.91
2022-09-03T16:16:08.756Z,95604.69
2022-09-03T16:21:51.007Z,95616.53
2022-09-03T16:27:12.777Z,95619.66
2022-09-03T16:33:03.618Z,95623.28
2022-09-03T16:38:32.815Z,95627.38
2022-09-03T16:43:44.434Z,95631.34
2022-09-03T16:49:25.199Z,95638.09
2022-09-03T16:54:57.071Z,95649.53
2022-09-03T17:00:21.597Z,95643.03
2022-09-03T17:05:42.758Z,95631.78
2022-09-03T17:11:30.357Z,95638.66
2022-09-03T17:16:34.172Z,95632.75
2022-09-03T17:22:17.096Z,95634.09
2022-09-03T17:27:53.319Z,95628.94
2022-09-03T17:33:17.177Z,95630.59
2022-09-03T17:38:44.956Z,95616.44
2022-09-03T17:43:53.803Z,95629.53
2022-09-03T17:49:33.215Z,95634.16
2022-09-03T17:54:59.976Z,95639.19
2022-09-03T18:00:07.917Z,95645.25
2022-09-03T18:05:25.904Z,95648.31
2022-09-03T18:11:08.357Z,95663.53
2022-09-03T18:16:16.413Z,95674.63
2022-09-03T18:21:39.698Z,95676.69
2022-09-03T18:26:48.104Z,95678.31
2022-09-03T18:32:09.097Z,95683.22
2022-09-03T18:37:30.222Z,95691.28
2022-09-03T18:43:17.595Z,95693.19
2022-09-03T18:48:34.498Z,95698.34
2022-09-03T18:54:14.157Z,95696.97
2022-09-03T18:59:16.577Z,95703.75
2022-09-03T19:04:46.175Z,95713.28
2022-09-03T19:10:22.657Z,95729.56
2022-09-03T19:15:30.452Z,95738.41
2022-09-03T19:21:28.714Z,95734.44
2022-09-03T19:26:44.140Z,95733.34
2022-09-03T19:32:16.994Z,95727.75
2022-09-03T19:37:25.816Z,95741.75
2022-09-03T19:42:43.256Z,95750.59
2022-09-03T19:48:04.844Z,95757.53
2022-09-03T19:53:25.959Z,95765.28
2022-09-03T19:58:55.883Z,95773.91
2022-09-03T20:04:13.414Z,95777.19
2022-09-03T20:09:40.264Z,95777.41
2022-09-03T20:15:04.907Z,95786.22
2022-09-03T20:21:02.300Z,95784.44
2022-09-03T20:26:11.876Z,95798.34
2022-09-03T20:31:25.871Z,95793.38
2022-09-03T20:37:15.365Z,95788.50
2022-09-03T20:42:42.416Z,95786.03
2022-09-03T20:48:13.442Z,95789.03
2022-09-03T20:53:58.038Z,95794.47
2022-09-03T20:59:15.377Z,95798.88
2022-09-03T21:05:01.165Z,95793.69
2022-09-03T21:10:13.507Z,95815.94
2022-09-03T21:15:56.538Z,95815.63
2022-09-03T21:21:48.175Z,95813.16
2022-09-03T21:27:18.146Z,95824.44
2022-09-03T21:32:25.236Z,95826.59
2022-09-03T21:37:28.014Z,95826.19
2022-09-03T21:42:36.581Z,95824.81
2022-09-03T21:48:25.976Z,95821.50
2022-09-03T21:53:38.036Z,95826.53
2022-09-03T21:59:02.435Z,95817.19
2022-09-03T22:04:28.313Z,95820.06
2022-09-03T22:09:54.740Z,95830.06
2022-09-03T22:14:57.192Z,95825.34
2022-09-03T22:19:59.343Z,95820.47
2022-09-03T22:25:47.433Z,95822.91
2022-09-03T22:31:23.434Z,95833.47
2022-09-03T22:36:51.323Z,95835.03
2022-09-03T22:42:14.694Z,95845.88
2022-09-03T22:47:48.370Z,95842.66
2022-09-03T22:53:05.634Z,95848.91
2022-09-03T22:58:33.693Z,95854.72
2022-09-03T23:03:45.418Z,95850.34
2022-09-03T23:08:54.024Z,95844.28
2022-09-03T23:14:09.234Z,95845.88
2022-09-03T23:24:28.016Z,95850.91
2022-09-03T23:29:41.376Z,95866.63
2022-09-03T23:34:43.516Z,95868.47
2022-09-03T23:39:51.559Z,95878.34
2022-09-03T23:45:10.261Z,95873.81
2022-09-03T23:51:00.974Z,95873.03
2022-09-03T23:56:39.594Z,95877.53
